sensor_id;sensor_type;location;lat;lon;timestamp;P1;durP1;ratioP1;P2;durP2;ratioP2
71767;SDS011;59604;52.138;5.446;2022-10-16T00:01:21;4.72;;;1.90;;
71767;SDS011;59604;52.138;5.446;2022-10-16T00:03:51;5.95;;;1.95;;
71767;SDS011;59604;52.138;5.446;2022-10-16T00:06:19;5.40;;;2.10;;
71767;SDS011;59604;52.138;5.446;2022-10-16T00:11:15;11.98;;;2.17;;
71767;SDS011;59604;52.138;5.446;2022-10-16T00:13:45;6.82;;;2.28;;
71767;SDS011;59604;52.138;5.446;2022-10-16T00:16:14;6.38;;;1.75;;
71767;SDS011;59604;52.138;5.446;2022-10-16T00:18:41;6.03;;;1.95;;
71767;SDS011;59604;52.138;5.446;2022-10-16T00:21:42;6.43;;;2.40;;
71767;SDS011;59604;52.138;5.446;2022-10-16T00:24:03;8.68;;;2.20;;
71767;SDS011;59604;52.138;5.446;2022-10-16T00:26:32;6.43;;;2.15;;
71767;SDS011;59604;52.138;5.446;2022-10-16T00:28:59;8.27;;;2.30;;
71767;SDS011;59604;52.138;5.446;2022-10-16T00:31:26;6.85;;;2.38;;
71767;SDS011;59604;52.138;5.446;2022-10-16T00:33:53;7.82;;;2.17;;
71767;SDS011;59604;52.138;5.446;2022-10-16T00:36:20;7.35;;;2.30;;
71767;SDS011;59604;52.138;5.446;2022-10-16T00:38:50;6.93;;;2.33;;
71767;SDS011;59604;52.138;5.446;2022-10-16T00:41:21;6.38;;;2.50;;
71767;SDS011;59604;52.138;5.446;2022-10-16T00:43:53;6.85;;;2.45;;
71767;SDS011;59604;52.138;5.446;2022-10-16T00:46:28;7.88;;;2.45;;
71767;SDS011;59604;52.138;5.446;2022-10-16T00:49:03;6.10;;;2.22;;
71767;SDS011;59604;52.138;5.446;2022-10-16T00:54:04;6.93;;;2.55;;
71767;SDS011;59604;52.138;5.446;2022-10-16T00:56:34;6.97;;;2.45;;
71767;SDS011;59604;52.138;5.446;2022-10-16T00:59:02;7.78;;;2.55;;
71767;SDS011;59604;52.138;5.446;2022-10-16T01:01:32;5.40;;;2.40;;
71767;SDS011;59604;52.138;5.446;2022-10-16T01:03:59;7.88;;;2.95;;
71767;SDS011;59604;52.138;5.446;2022-10-16T01:06:29;6.55;;;2.63;;
71767;SDS011;59604;52.138;5.446;2022-10-16T01:09:11;9.93;;;2.63;;
71767;SDS011;59604;52.138;5.446;2022-10-16T01:14:26;7.90;;;3.08;;
71767;SDS011;59604;52.138;5.446;2022-10-16T01:17:16;8.18;;;2.90;;
71767;SDS011;59604;52.138;5.446;2022-10-16T01:25:39;7.53;;;3.05;;
71767;SDS011;59604;52.138;5.446;2022-10-16T01:28:09;8.68;;;3.40;;
71767;SDS011;59604;52.138;5.446;2022-10-16T01:30:39;6.85;;;2.92;;
71767;SDS011;59604;52.138;5.446;2022-10-16T01:33:10;8.27;;;2.97;;
71767;SDS011;59604;52.138;5.446;2022-10-16T01:35:44;9.05;;;2.97;;
71767;SDS011;59604;52.138;5.446;2022-10-16T01:38:19;9.88;;;3.00;;
71767;SDS011;59604;52.138;5.446;2022-10-16T01:40:49;8.68;;;3.00;;
71767;SDS011;59604;52.138;5.446;2022-10-16T01:43:19;7.53;;;2.83;;
71767;SDS011;59604;52.138;5.446;2022-10-16T01:45:50;8.30;;;2.95;;
71767;SDS011;59604;52.138;5.446;2022-10-16T01:50:58;6.88;;;2.65;;
71767;SDS011;59604;52.138;5.446;2022-10-16T01:53:29;6.15;;;2.72;;
71767;SDS011;59604;52.138;5.446;2022-10-16T01:55:57;8.70;;;2.85;;
71767;SDS011;59604;52.138;5.446;2022-10-16T01:58:25;8.15;;;2.95;;
71767;SDS011;59604;52.138;5.446;2022-10-16T02:00:56;6.68;;;2.40;;
71767;SDS011;59604;52.138;5.446;2022-10-16T02:03:23;7.57;;;2.90;;
71767;SDS011;59604;52.138;5.446;2022-10-16T02:05:53;8.02;;;2.63;;
71767;SDS011;59604;52.138;5.446;2022-10-16T02:08:23;6.70;;;2.67;;
71767;SDS011;59604;52.138;5.446;2022-10-16T02:10:54;6.05;;;2.70;;
71767;SDS011;59604;52.138;5.446;2022-10-16T02:13:28;6.72;;;3.08;;
71767;SDS011;59604;52.138;5.446;2022-10-16T02:15:59;6.53;;;2.95;;
71767;SDS011;59604;52.138;5.446;2022-10-16T02:18:26;6.68;;;2.75;;
71767;SDS011;59604;52.138;5.446;2022-10-16T02:20:57;6.63;;;2.58;;
71767;SDS011;59604;52.138;5.446;2022-10-16T02:26:36;7.82;;;2.63;;
71767;SDS011;59604;52.138;5.446;2022-10-16T02:29:08;7.93;;;2.60;;
71767;SDS011;59604;52.138;5.446;2022-10-16T02:31:40;7.10;;;2.63;;
71767;SDS011;59604;52.138;5.446;2022-10-16T02:34:10;8.45;;;2.72;;
71767;SDS011;59604;52.138;5.446;2022-10-16T02:36:39;6.63;;;2.70;;
71767;SDS011;59604;52.138;5.446;2022-10-16T02:39:08;7.00;;;2.90;;
71767;SDS011;59604;52.138;5.446;2022-10-16T02:41:36;6.70;;;2.72;;
71767;SDS011;59604;52.138;5.446;2022-10-16T02:44:03;6.40;;;3.00;;
71767;SDS011;59604;52.138;5.446;2022-10-16T02:46:30;6.60;;;2.92;;
71767;SDS011;59604;52.138;5.446;2022-10-16T02:48:56;7.32;;;3.20;;
71767;SDS011;59604;52.138;5.446;2022-10-16T02:51:23;6.22;;;2.65;;
71767;SDS011;59604;52.138;5.446;2022-10-16T02:53:49;6.57;;;2.75;;
71767;SDS011;59604;52.138;5.446;2022-10-16T02:56:16;8.00;;;3.13;;
71767;SDS011;59604;52.138;5.446;2022-10-16T02:58:42;8.77;;;3.05;;
71767;SDS011;59604;52.138;5.446;2022-10-16T03:01:08;8.05;;;3.13;;
71767;SDS011;59604;52.138;5.446;2022-10-16T03:03:35;8.43;;;2.85;;
71767;SDS011;59604;52.138;5.446;2022-10-16T03:06:02;6.15;;;3.10;;
71767;SDS011;59604;52.138;5.446;2022-10-16T03:08:28;7.30;;;3.20;;
71767;SDS011;59604;52.138;5.446;2022-10-16T03:10:55;7.07;;;2.97;;
71767;SDS011;59604;52.138;5.446;2022-10-16T03:13:22;6.07;;;2.70;;
71767;SDS011;59604;52.138;5.446;2022-10-16T03:15:48;6.40;;;2.70;;
71767;SDS011;59604;52.138;5.446;2022-10-16T03:18:15;7.00;;;2.88;;
71767;SDS011;59604;52.138;5.446;2022-10-16T03:20:44;5.40;;;2.70;;
71767;SDS011;59604;52.138;5.446;2022-10-16T03:23:11;5.50;;;2.47;;
71767;SDS011;59604;52.138;5.446;2022-10-16T03:25:38;6.88;;;2.80;;
71767;SDS011;59604;52.138;5.446;2022-10-16T03:28:04;5.07;;;2.53;;
71767;SDS011;59604;52.138;5.446;2022-10-16T03:30:31;7.28;;;3.00;;
71767;SDS011;59604;52.138;5.446;2022-10-16T03:32:58;9.05;;;2.80;;
71767;SDS011;59604;52.138;5.446;2022-10-16T03:35:24;7.45;;;3.28;;
71767;SDS011;59604;52.138;5.446;2022-10-16T03:37:51;8.07;;;2.80;;
71767;SDS011;59604;52.138;5.446;2022-10-16T03:40:17;8.85;;;2.60;;
71767;SDS011;59604;52.138;5.446;2022-10-16T03:42:44;6.47;;;2.63;;
71767;SDS011;59604;52.138;5.446;2022-10-16T03:45:11;7.88;;;2.47;;
71767;SDS011;59604;52.138;5.446;2022-10-16T03:47:37;6.50;;;2.70;;
71767;SDS011;59604;52.138;5.446;2022-10-16T03:50:04;9.23;;;3.00;;
71767;SDS011;59604;52.138;5.446;2022-10-16T03:52:31;6.35;;;2.75;;
71767;SDS011;59604;52.138;5.446;2022-10-16T03:54:59;7.45;;;2.90;;
71767;SDS011;59604;52.138;5.446;2022-10-16T03:57:25;5.88;;;2.85;;
71767;SDS011;59604;52.138;5.446;2022-10-16T03:59:52;7.53;;;2.80;;
71767;SDS011;59604;52.138;5.446;2022-10-16T04:02:19;7.20;;;2.58;;
71767;SDS011;59604;52.138;5.446;2022-10-16T04:04:45;6.25;;;2.42;;
71767;SDS011;59604;52.138;5.446;2022-10-16T04:07:12;7.15;;;2.65;;
71767;SDS011;59604;52.138;5.446;2022-10-16T04:09:38;7.55;;;2.55;;
71767;SDS011;59604;52.138;5.446;2022-10-16T04:12:05;6.30;;;2.50;;
71767;SDS011;59604;52.138;5.446;2022-10-16T04:14:31;5.65;;;2.30;;
71767;SDS011;59604;52.138;5.446;2022-10-16T04:16:58;5.82;;;2.50;;
71767;SDS011;59604;52.138;5.446;2022-10-16T04:19:24;5.75;;;2.33;;
71767;SDS011;59604;52.138;5.446;2022-10-16T04:21:51;7.93;;;2.20;;
71767;SDS011;59604;52.138;5.446;2022-10-16T04:24:17;7.15;;;2.45;;
71767;SDS011;59604;52.138;5.446;2022-10-16T04:26:44;5.40;;;2.40;;
71767;SDS011;59604;52.138;5.446;2022-10-16T04:29:10;6.20;;;2.17;;
71767;SDS011;59604;52.138;5.446;2022-10-16T04:31:37;6.32;;;2.30;;
71767;SDS011;59604;52.138;5.446;2022-10-16T04:34:03;5.70;;;2.22;;
71767;SDS011;59604;52.138;5.446;2022-10-16T04:36:30;5.43;;;2.10;;
71767;SDS011;59604;52.138;5.446;2022-10-16T04:38:56;5.55;;;2.20;;
71767;SDS011;59604;52.138;5.446;2022-10-16T04:41:23;6.45;;;2.45;;
71767;SDS011;59604;52.138;5.446;2022-10-16T04:43:49;7.18;;;2.20;;
71767;SDS011;59604;52.138;5.446;2022-10-16T04:46:16;5.18;;;2.17;;
71767;SDS011;59604;52.138;5.446;2022-10-16T04:48:42;5.88;;;2.13;;
71767;SDS011;59604;52.138;5.446;2022-10-16T04:51:09;5.65;;;2.30;;
71767;SDS011;59604;52.138;5.446;2022-10-16T04:53:36;7.45;;;2.63;;
71767;SDS011;59604;52.138;5.446;2022-10-16T04:56:03;5.82;;;2.15;;
71767;SDS011;59604;52.138;5.446;2022-10-16T04:58:30;5.75;;;2.00;;
71767;SDS011;59604;52.138;5.446;2022-10-16T05:00:56;5.30;;;1.95;;
71767;SDS011;59604;52.138;5.446;2022-10-16T05:03:22;5.43;;;2.20;;
71767;SDS011;59604;52.138;5.446;2022-10-16T05:05:49;5.65;;;2.30;;
71767;SDS011;59604;52.138;5.446;2022-10-16T05:08:16;6.00;;;2.20;;
71767;SDS011;59604;52.138;5.446;2022-10-16T05:10:43;7.03;;;2.13;;
71767;SDS011;59604;52.138;5.446;2022-10-16T05:13:11;8.52;;;2.30;;
71767;SDS011;59604;52.138;5.446;2022-10-16T05:15:38;6.28;;;2.15;;
71767;SDS011;59604;52.138;5.446;2022-10-16T05:18:04;5.65;;;2.20;;
71767;SDS011;59604;52.138;5.446;2022-10-16T05:20:31;6.05;;;2.28;;
71767;SDS011;59604;52.138;5.446;2022-10-16T05:22:58;7.30;;;2.20;;
71767;SDS011;59604;52.138;5.446;2022-10-16T05:25:24;7.30;;;2.40;;
71767;SDS011;59604;52.138;5.446;2022-10-16T05:27:51;6.25;;;2.40;;
71767;SDS011;59604;52.138;5.446;2022-10-16T05:30:17;5.95;;;2.17;;
71767;SDS011;59604;52.138;5.446;2022-10-16T05:32:48;4.88;;;2.15;;
71767;SDS011;59604;52.138;5.446;2022-10-16T05:35:16;6.60;;;2.20;;
71767;SDS011;59604;52.138;5.446;2022-10-16T05:40:10;5.03;;;2.08;;
71767;SDS011;59604;52.138;5.446;2022-10-16T05:42:37;4.90;;;2.30;;
71767;SDS011;59604;52.138;5.446;2022-10-16T05:45:04;5.95;;;2.13;;
71767;SDS011;59604;52.138;5.446;2022-10-16T05:47:32;5.15;;;2.28;;
71767;SDS011;59604;52.138;5.446;2022-10-16T05:49:58;5.70;;;1.92;;
71767;SDS011;59604;52.138;5.446;2022-10-16T05:52:26;6.10;;;2.10;;
71767;SDS011;59604;52.138;5.446;2022-10-16T05:57:20;4.55;;;2.08;;
71767;SDS011;59604;52.138;5.446;2022-10-16T05:59:46;5.47;;;2.17;;
71767;SDS011;59604;52.138;5.446;2022-10-16T06:02:13;7.10;;;2.40;;
71767;SDS011;59604;52.138;5.446;2022-10-16T06:04:40;6.72;;;2.20;;
71767;SDS011;59604;52.138;5.446;2022-10-16T06:07:07;6.05;;;2.30;;
71767;SDS011;59604;52.138;5.446;2022-10-16T06:09:34;7.15;;;2.30;;
71767;SDS011;59604;52.138;5.446;2022-10-16T06:12:00;8.65;;;2.30;;
71767;SDS011;59604;52.138;5.446;2022-10-16T06:14:27;5.85;;;2.20;;
71767;SDS011;59604;52.138;5.446;2022-10-16T06:16:53;5.28;;;2.20;;
71767;SDS011;59604;52.138;5.446;2022-10-16T06:19:20;5.82;;;2.13;;
71767;SDS011;59604;52.138;5.446;2022-10-16T06:21:47;5.88;;;2.35;;
71767;SDS011;59604;52.138;5.446;2022-10-16T06:24:14;6.15;;;2.22;;
71767;SDS011;59604;52.138;5.446;2022-10-16T06:26:40;7.38;;;2.10;;
71767;SDS011;59604;52.138;5.446;2022-10-16T06:29:07;5.18;;;2.22;;
71767;SDS011;59604;52.138;5.446;2022-10-16T06:31:34;6.78;;;1.90;;
71767;SDS011;59604;52.138;5.446;2022-10-16T06:34:01;5.88;;;2.25;;
71767;SDS011;59604;52.138;5.446;2022-10-16T06:36:28;5.55;;;2.35;;
71767;SDS011;59604;52.138;5.446;2022-10-16T06:38:54;6.20;;;2.08;;
71767;SDS011;59604;52.138;5.446;2022-10-16T06:41:21;5.53;;;2.50;;
71767;SDS011;59604;52.138;5.446;2022-10-16T06:43:49;5.28;;;2.20;;
71767;SDS011;59604;52.138;5.446;2022-10-16T06:46:17;6.30;;;2.10;;
71767;SDS011;59604;52.138;5.446;2022-10-16T06:48:46;7.07;;;2.35;;
71767;SDS011;59604;52.138;5.446;2022-10-16T06:51:22;5.55;;;2.30;;
71767;SDS011;59604;52.138;5.446;2022-10-16T06:53:51;6.65;;;2.05;;
71767;SDS011;59604;52.138;5.446;2022-10-16T06:56:29;6.82;;;2.30;;
71767;SDS011;59604;52.138;5.446;2022-10-16T06:58:57;5.43;;;2.30;;
71767;SDS011;59604;52.138;5.446;2022-10-16T07:01:25;8.30;;;2.03;;
71767;SDS011;59604;52.138;5.446;2022-10-16T07:03:52;5.68;;;2.28;;
71767;SDS011;59604;52.138;5.446;2022-10-16T07:06:19;5.43;;;1.90;;
71767;SDS011;59604;52.138;5.446;2022-10-16T07:08:47;6.63;;;1.92;;
71767;SDS011;59604;52.138;5.446;2022-10-16T07:11:16;5.85;;;2.20;;
71767;SDS011;59604;52.138;5.446;2022-10-16T07:13:44;5.68;;;2.10;;
71767;SDS011;59604;52.138;5.446;2022-10-16T07:16:20;5.40;;;2.20;;
71767;SDS011;59604;52.138;5.446;2022-10-16T07:18:48;5.10;;;1.90;;
71767;SDS011;59604;52.138;5.446;2022-10-16T07:21:17;7.53;;;2.00;;
71767;SDS011;59604;52.138;5.446;2022-10-16T07:23:50;5.93;;;2.25;;
71767;SDS011;59604;52.138;5.446;2022-10-16T07:26:17;8.15;;;2.10;;
71767;SDS011;59604;52.138;5.446;2022-10-16T07:28:44;5.35;;;1.90;;
71767;SDS011;59604;52.138;5.446;2022-10-16T07:31:11;6.32;;;1.70;;
71767;SDS011;59604;52.138;5.446;2022-10-16T07:33:39;6.38;;;2.00;;
71767;SDS011;59604;52.138;5.446;2022-10-16T07:36:13;5.35;;;1.80;;
71767;SDS011;59604;52.138;5.446;2022-10-16T07:38:42;5.05;;;1.45;;
71767;SDS011;59604;52.138;5.446;2022-10-16T07:41:10;5.68;;;1.75;;
71767;SDS011;59604;52.138;5.446;2022-10-16T07:43:38;7.55;;;1.90;;
71767;SDS011;59604;52.138;5.446;2022-10-16T07:46:06;5.30;;;1.55;;
71767;SDS011;59604;52.138;5.446;2022-10-16T07:48:33;4.15;;;1.70;;
71767;SDS011;59604;52.138;5.446;2022-10-16T07:51:01;5.57;;;1.80;;
71767;SDS011;59604;52.138;5.446;2022-10-16T07:53:30;6.50;;;1.90;;
71767;SDS011;59604;52.138;5.446;2022-10-16T07:56:01;8.38;;;2.20;;
71767;SDS011;59604;52.138;5.446;2022-10-16T07:58:29;7.47;;;2.30;;
71767;SDS011;59604;52.138;5.446;2022-10-16T08:00:56;6.25;;;2.33;;
71767;SDS011;59604;52.138;5.446;2022-10-16T08:03:24;5.15;;;2.10;;
71767;SDS011;59604;52.138;5.446;2022-10-16T08:05:51;6.80;;;2.22;;
71767;SDS011;59604;52.138;5.446;2022-10-16T08:08:18;6.28;;;2.03;;
71767;SDS011;59604;52.138;5.446;2022-10-16T08:10:45;6.53;;;2.20;;
71767;SDS011;59604;52.138;5.446;2022-10-16T08:13:11;7.57;;;2.20;;
71767;SDS011;59604;52.138;5.446;2022-10-16T08:15:42;6.93;;;2.90;;
71767;SDS011;59604;52.138;5.446;2022-10-16T08:18:09;4.68;;;2.05;;
71767;SDS011;59604;52.138;5.446;2022-10-16T08:20:36;5.65;;;2.20;;
71767;SDS011;59604;52.138;5.446;2022-10-16T08:23:03;6.97;;;2.20;;
71767;SDS011;59604;52.138;5.446;2022-10-16T08:25:29;7.30;;;2.03;;
71767;SDS011;59604;52.138;5.446;2022-10-16T08:27:56;8.25;;;2.30;;
71767;SDS011;59604;52.138;5.446;2022-10-16T08:30:23;5.53;;;1.92;;
71767;SDS011;59604;52.138;5.446;2022-10-16T08:32:50;6.10;;;1.80;;
71767;SDS011;59604;52.138;5.446;2022-10-16T08:35:17;5.80;;;1.90;;
71767;SDS011;59604;52.138;5.446;2022-10-16T08:37:43;4.88;;;1.80;;
71767;SDS011;59604;52.138;5.446;2022-10-16T08:40:17;6.50;;;2.03;;
71767;SDS011;59604;52.138;5.446;2022-10-16T08:45:21;6.45;;;1.80;;
71767;SDS011;59604;52.138;5.446;2022-10-16T08:50:26;6.93;;;2.00;;
71767;SDS011;59604;52.138;5.446;2022-10-16T08:52:55;5.00;;;1.83;;
71767;SDS011;59604;52.138;5.446;2022-10-16T08:57:59;6.28;;;1.70;;
71767;SDS011;59604;52.138;5.446;2022-10-16T09:00:27;6.93;;;1.90;;
71767;SDS011;59604;52.138;5.446;2022-10-16T09:02:58;9.50;;;2.08;;
71767;SDS011;59604;52.138;5.446;2022-10-16T09:08:16;11.70;;;1.90;;
71767;SDS011;59604;52.138;5.446;2022-10-16T09:10:56;8.38;;;1.70;;
71767;SDS011;59604;52.138;5.446;2022-10-16T09:16:57;5.18;;;1.50;;
71767;SDS011;59604;52.138;5.446;2022-10-16T09:21:45;8.52;;;1.88;;
71767;SDS011;59604;52.138;5.446;2022-10-16T09:24:20;7.70;;;1.63;;
71767;SDS011;59604;52.138;5.446;2022-10-16T09:26:54;10.27;;;1.50;;
71767;SDS011;59604;52.138;5.446;2022-10-16T09:29:21;5.88;;;1.42;;
71767;SDS011;59604;52.138;5.446;2022-10-16T09:31:49;9.05;;;1.73;;
71767;SDS011;59604;52.138;5.446;2022-10-16T09:36:52;8.68;;;1.88;;
71767;SDS011;59604;52.138;5.446;2022-10-16T09:39:20;8.38;;;1.65;;
71767;SDS011;59604;52.138;5.446;2022-10-16T09:41:46;8.20;;;1.67;;
71767;SDS011;59604;52.138;5.446;2022-10-16T09:44:29;7.93;;;1.70;;
71767;SDS011;59604;52.138;5.446;2022-10-16T09:47:31;8.52;;;1.63;;
71767;SDS011;59604;52.138;5.446;2022-10-16T09:52:25;8.25;;;1.55;;
71767;SDS011;59604;52.138;5.446;2022-10-16T09:54:55;9.00;;;1.60;;
71767;SDS011;59604;52.138;5.446;2022-10-16T09:57:24;7.90;;;1.50;;
71767;SDS011;59604;52.138;5.446;2022-10-16T09:59:52;8.05;;;1.83;;
71767;SDS011;59604;52.138;5.446;2022-10-16T10:02:38;8.82;;;1.67;;
71767;SDS011;59604;52.138;5.446;2022-10-16T10:05:05;10.30;;;1.55;;
71767;SDS011;59604;52.138;5.446;2022-10-16T10:08:02;7.82;;;1.85;;
71767;SDS011;59604;52.138;5.446;2022-10-16T10:10:33;7.25;;;1.60;;
71767;SDS011;59604;52.138;5.446;2022-10-16T10:13:14;11.13;;;1.70;;
71767;SDS011;59604;52.138;5.446;2022-10-16T10:15:43;6.57;;;1.50;;
71767;SDS011;59604;52.138;5.446;2022-10-16T10:18:17;6.13;;;1.90;;
71767;SDS011;59604;52.138;5.446;2022-10-16T10:20:46;6.43;;;1.63;;
71767;SDS011;59604;52.138;5.446;2022-10-16T10:23:24;8.82;;;1.67;;
71767;SDS011;59604;52.138;5.446;2022-10-16T10:25:54;9.00;;;1.80;;
71767;SDS011;59604;52.138;5.446;2022-10-16T10:28:55;9.50;;;1.83;;
71767;SDS011;59604;52.138;5.446;2022-10-16T10:40:17;7.30;;;1.65;;
71767;SDS011;59604;52.138;5.446;2022-10-16T10:42:49;8.02;;;1.50;;
71767;SDS011;59604;52.138;5.446;2022-10-16T10:45:27;11.25;;;1.80;;
71767;SDS011;59604;52.138;5.446;2022-10-16T10:50:45;7.45;;;1.40;;
71767;SDS011;59604;52.138;5.446;2022-10-16T10:53:24;7.28;;;1.10;;
71767;SDS011;59604;52.138;5.446;2022-10-16T10:56:08;9.35;;;1.40;;
71767;SDS011;59604;52.138;5.446;2022-10-16T10:59:07;7.05;;;1.98;;
71767;SDS011;59604;52.138;5.446;2022-10-16T11:01:54;7.05;;;1.80;;
71767;SDS011;59604;52.138;5.446;2022-10-16T11:07:30;10.00;;;2.08;;
71767;SDS011;59604;52.138;5.446;2022-10-16T11:10:20;10.02;;;1.90;;
71767;SDS011;59604;52.138;5.446;2022-10-16T11:12:53;7.53;;;1.50;;
71767;SDS011;59604;52.138;5.446;2022-10-16T11:15:27;9.32;;;1.70;;
71767;SDS011;59604;52.138;5.446;2022-10-16T11:17:59;7.47;;;1.60;;
71767;SDS011;59604;52.138;5.446;2022-10-16T11:20:37;6.63;;;1.52;;
71767;SDS011;59604;52.138;5.446;2022-10-16T11:23:13;7.13;;;1.70;;
71767;SDS011;59604;52.138;5.446;2022-10-16T11:25:44;8.13;;;1.40;;
71767;SDS011;59604;52.138;5.446;2022-10-16T11:28:16;8.05;;;1.58;;
71767;SDS011;59604;52.138;5.446;2022-10-16T11:31:00;7.82;;;1.50;;
71767;SDS011;59604;52.138;5.446;2022-10-16T11:38:41;7.72;;;1.50;;
71767;SDS011;59604;52.138;5.446;2022-10-16T11:44:16;8.43;;;1.55;;
71767;SDS011;59604;52.138;5.446;2022-10-16T11:46:58;6.32;;;1.40;;
71767;SDS011;59604;52.138;5.446;2022-10-16T11:49:53;10.02;;;1.50;;
71767;SDS011;59604;52.138;5.446;2022-10-16T11:52:36;7.50;;;1.55;;
71767;SDS011;59604;52.138;5.446;2022-10-16T11:55:30;8.48;;;1.50;;
71767;SDS011;59604;52.138;5.446;2022-10-16T12:00:55;7.30;;;1.30;;
71767;SDS011;59604;52.138;5.446;2022-10-16T12:06:10;8.75;;;1.60;;
71767;SDS011;59604;52.138;5.446;2022-10-16T12:08:58;6.93;;;1.60;;
71767;SDS011;59604;52.138;5.446;2022-10-16T12:14:05;8.52;;;1.40;;
71767;SDS011;59604;52.138;5.446;2022-10-16T12:16:38;8.35;;;1.30;;
71767;SDS011;59604;52.138;5.446;2022-10-16T12:19:29;5.97;;;1.17;;
71767;SDS011;59604;52.138;5.446;2022-10-16T12:21:57;7.55;;;1.52;;
71767;SDS011;59604;52.138;5.446;2022-10-16T12:24:29;6.38;;;1.50;;
71767;SDS011;59604;52.138;5.446;2022-10-16T12:27:02;6.30;;;1.35;;
71767;SDS011;59604;52.138;5.446;2022-10-16T12:29:36;6.90;;;1.55;;
71767;SDS011;59604;52.138;5.446;2022-10-16T12:32:20;7.38;;;1.35;;
71767;SDS011;59604;52.138;5.446;2022-10-16T12:35:21;6.97;;;1.17;;
71767;SDS011;59604;52.138;5.446;2022-10-16T12:37:49;8.55;;;1.48;;
71767;SDS011;59604;52.138;5.446;2022-10-16T12:40:28;6.30;;;1.38;;
71767;SDS011;59604;52.138;5.446;2022-10-16T12:42:57;5.07;;;1.20;;
71767;SDS011;59604;52.138;5.446;2022-10-16T12:47:54;7.78;;;1.20;;
71767;SDS011;59604;52.138;5.446;2022-10-16T12:50:26;5.82;;;1.25;;
71767;SDS011;59604;52.138;5.446;2022-10-16T12:52:57;5.65;;;1.40;;
71767;SDS011;59604;52.138;5.446;2022-10-16T12:55:24;7.38;;;1.00;;
71767;SDS011;59604;52.138;5.446;2022-10-16T13:00:35;9.45;;;1.25;;
71767;SDS011;59604;52.138;5.446;2022-10-16T13:25:35;7.25;;;1.08;;
71767;SDS011;59604;52.138;5.446;2022-10-16T13:28:22;8.18;;;1.13;;
71767;SDS011;59604;52.138;5.446;2022-10-16T13:30:56;7.57;;;1.20;;
71767;SDS011;59604;52.138;5.446;2022-10-16T13:33:37;5.88;;;1.02;;
71767;SDS011;59604;52.138;5.446;2022-10-16T13:36:06;8.30;;;1.20;;
71767;SDS011;59604;52.138;5.446;2022-10-16T13:38:33;8.10;;;1.70;;
71767;SDS011;59604;52.138;5.446;2022-10-16T13:41:05;5.00;;;0.98;;
71767;SDS011;59604;52.138;5.446;2022-10-16T13:43:41;8.73;;;1.13;;
71767;SDS011;59604;52.138;5.446;2022-10-16T13:46:21;9.63;;;1.30;;
71767;SDS011;59604;52.138;5.446;2022-10-16T13:51:28;6.88;;;1.20;;
71767;SDS011;59604;52.138;5.446;2022-10-16T13:53:56;8.63;;;1.30;;
71767;SDS011;59604;52.138;5.446;2022-10-16T13:56:28;7.55;;;1.25;;
71767;SDS011;59604;52.138;5.446;2022-10-16T13:59:00;11.05;;;1.42;;
71767;SDS011;59604;52.138;5.446;2022-10-16T14:01:29;7.10;;;1.15;;
71767;SDS011;59604;52.138;5.446;2022-10-16T14:04:05;10.23;;;1.70;;
71767;SDS011;59604;52.138;5.446;2022-10-16T14:06:35;9.18;;;1.20;;
71767;SDS011;59604;52.138;5.446;2022-10-16T14:09:07;6.13;;;0.95;;
71767;SDS011;59604;52.138;5.446;2022-10-16T14:11:46;7.93;;;1.13;;
71767;SDS011;59604;52.138;5.446;2022-10-16T14:14:15;9.25;;;1.35;;
71767;SDS011;59604;52.138;5.446;2022-10-16T14:16:42;6.90;;;1.13;;
71767;SDS011;59604;52.138;5.446;2022-10-16T14:19:24;6.32;;;1.23;;
71767;SDS011;59604;52.138;5.446;2022-10-16T14:21:53;5.38;;;1.08;;
71767;SDS011;59604;52.138;5.446;2022-10-16T14:24:27;7.97;;;1.30;;
71767;SDS011;59604;52.138;5.446;2022-10-16T14:26:58;5.90;;;1.20;;
71767;SDS011;59604;52.138;5.446;2022-10-16T14:29:27;6.32;;;1.15;;
71767;SDS011;59604;52.138;5.446;2022-10-16T14:32:03;8.57;;;1.55;;
71767;SDS011;59604;52.138;5.446;2022-10-16T14:34:34;6.47;;;1.25;;
71767;SDS011;59604;52.138;5.446;2022-10-16T14:37:22;7.07;;;1.38;;
71767;SDS011;59604;52.138;5.446;2022-10-16T14:39:53;7.35;;;1.40;;
71767;SDS011;59604;52.138;5.446;2022-10-16T14:42:21;6.95;;;1.40;;
71767;SDS011;59604;52.138;5.446;2022-10-16T14:44:51;6.05;;;1.30;;
71767;SDS011;59604;52.138;5.446;2022-10-16T14:47:20;8.00;;;1.27;;
71767;SDS011;59604;52.138;5.446;2022-10-16T14:49:52;7.53;;;1.52;;
71767;SDS011;59604;52.138;5.446;2022-10-16T14:52:21;8.88;;;1.73;;
71767;SDS011;59604;52.138;5.446;2022-10-16T14:54:48;7.03;;;1.33;;
71767;SDS011;59604;52.138;5.446;2022-10-16T14:57:18;6.50;;;1.10;;
71767;SDS011;59604;52.138;5.446;2022-10-16T14:59:48;6.40;;;1.48;;
71767;SDS011;59604;52.138;5.446;2022-10-16T15:02:23;7.50;;;1.30;;
71767;SDS011;59604;52.138;5.446;2022-10-16T15:04:54;7.03;;;1.35;;
71767;SDS011;59604;52.138;5.446;2022-10-16T15:07:22;9.82;;;1.55;;
71767;SDS011;59604;52.138;5.446;2022-10-16T15:09:49;7.70;;;1.17;;
71767;SDS011;59604;52.138;5.446;2022-10-16T15:12:16;8.32;;;1.30;;
71767;SDS011;59604;52.138;5.446;2022-10-16T15:14:43;9.80;;;1.60;;
71767;SDS011;59604;52.138;5.446;2022-10-16T15:17:10;7.68;;;1.25;;
71767;SDS011;59604;52.138;5.446;2022-10-16T15:19:37;8.73;;;1.38;;
71767;SDS011;59604;52.138;5.446;2022-10-16T15:22:03;8.88;;;1.20;;
71767;SDS011;59604;52.138;5.446;2022-10-16T15:24:30;8.43;;;1.35;;
71767;SDS011;59604;52.138;5.446;2022-10-16T15:26:56;9.43;;;1.70;;
71767;SDS011;59604;52.138;5.446;2022-10-16T15:29:23;11.35;;;2.08;;
71767;SDS011;59604;52.138;5.446;2022-10-16T15:31:49;8.10;;;1.80;;
71767;SDS011;59604;52.138;5.446;2022-10-16T15:34:16;12.73;;;1.95;;
71767;SDS011;59604;52.138;5.446;2022-10-16T15:36:45;7.68;;;2.03;;
71767;SDS011;59604;52.138;5.446;2022-10-16T15:39:12;9.02;;;1.90;;
71767;SDS011;59604;52.138;5.446;2022-10-16T15:41:41;7.18;;;1.42;;
71767;SDS011;59604;52.138;5.446;2022-10-16T15:44:08;7.28;;;1.55;;
71767;SDS011;59604;52.138;5.446;2022-10-16T15:46:35;8.63;;;1.80;;
71767;SDS011;59604;52.138;5.446;2022-10-16T15:49:03;11.65;;;3.17;;
71767;SDS011;59604;52.138;5.446;2022-10-16T15:51:30;11.43;;;2.08;;
71767;SDS011;59604;52.138;5.446;2022-10-16T15:53:59;8.80;;;1.50;;
71767;SDS011;59604;52.138;5.446;2022-10-16T15:56:28;9.57;;;1.63;;
71767;SDS011;59604;52.138;5.446;2022-10-16T15:58:55;12.50;;;1.63;;
71767;SDS011;59604;52.138;5.446;2022-10-16T16:01:21;6.03;;;1.25;;
71767;SDS011;59604;52.138;5.446;2022-10-16T16:03:52;8.45;;;1.70;;
71767;SDS011;59604;52.138;5.446;2022-10-16T16:06:19;8.15;;;1.40;;
71767;SDS011;59604;52.138;5.446;2022-10-16T16:08:46;10.15;;;1.73;;
71767;SDS011;59604;52.138;5.446;2022-10-16T16:11:15;11.93;;;2.00;;
71767;SDS011;59604;52.138;5.446;2022-10-16T16:13:43;13.20;;;5.47;;
71767;SDS011;59604;52.138;5.446;2022-10-16T16:16:14;13.00;;;3.65;;
71767;SDS011;59604;52.138;5.446;2022-10-16T16:18:41;12.55;;;3.83;;
71767;SDS011;59604;52.138;5.446;2022-10-16T16:21:10;12.50;;;3.40;;
71767;SDS011;59604;52.138;5.446;2022-10-16T16:23:38;12.05;;;3.58;;
71767;SDS011;59604;52.138;5.446;2022-10-16T16:26:05;12.25;;;3.40;;
71767;SDS011;59604;52.138;5.446;2022-10-16T16:28:40;12.10;;;3.50;;
71767;SDS011;59604;52.138;5.446;2022-10-16T16:31:08;13.48;;;3.53;;
71767;SDS011;59604;52.138;5.446;2022-10-16T16:33:35;8.85;;;2.70;;
71767;SDS011;59604;52.138;5.446;2022-10-16T16:36:02;11.07;;;2.40;;
71767;SDS011;59604;52.138;5.446;2022-10-16T16:38:39;12.40;;;2.65;;
71767;SDS011;59604;52.138;5.446;2022-10-16T16:41:12;7.53;;;2.40;;
71767;SDS011;59604;52.138;5.446;2022-10-16T16:43:40;5.90;;;1.45;;
71767;SDS011;59604;52.138;5.446;2022-10-16T16:46:07;10.27;;;2.00;;
71767;SDS011;59604;52.138;5.446;2022-10-16T16:48:34;9.60;;;2.03;;
71767;SDS011;59604;52.138;5.446;2022-10-16T16:51:07;9.07;;;1.90;;